Time;durP1;ratioP1;P1;durP2;ratioP2;P2;SDS_P1;SDS_P2;PMS_P1;PMS_P2;Temp;Humidity;BMP_temperature;BMP_pressure;BME280_temperature;BME280_humidity;BME280_pressure;Samples;Min_cycle;Max_cycle;Signal;HPM_P1;HPM_P2
2022/10/29 00:01:10;;;;;;;18.75;11.35;;;;;;;13.44;100.00;102006.72;4969457;28;20047;-65
2022/10/29 00:03:35;;;;;;;17.73;10.15;;;;;;;13.47;100.00;102007.66;4968009;28;20470;-65
2022/10/29 00:06:04;;;;;;;14.10;10.43;;;;;;;13.45;100.00;102008.47;4969579;28;20023;-65
2022/10/29 00:08:31;;;;;;;13.57;10.25;;;;;;;13.42;100.00;102003.16;4969878;28;20194;-65
2022/10/29 00:11:12;;;;;;;17.25;10.50;;;;;;;13.41;100.00;101993.56;4968934;28;20081;-65
2022/10/29 00:13:37;;;;;;;20.77;10.68;;;;;;;13.39;100.00;101992.63;4969088;28;20034;-65
2022/10/29 00:16:14;;;;;;;14.20;10.43;;;;;;;13.37;100.00;101991.66;4956156;28;20489;-65
2022/10/29 00:18:40;;;;;;;19.08;10.63;;;;;;;13.34;100.00;101994.16;4969779;28;20419;-65
2022/10/29 00:21:10;;;;;;;16.75;11.52;;;;;;;13.31;100.00;101988.84;4953556;28;20039;-65
2022/10/29 00:23:35;;;;;;;14.88;10.32;;;;;;;13.28;100.00;101993.91;4958319;28;20568;-65
2022/10/29 00:26:01;;;;;;;14.60;10.15;;;;;;;13.24;100.00;101998.09;4955218;28;20110;-65
2022/10/29 00:28:27;;;;;;;15.18;11.15;;;;;;;13.20;100.00;102001.44;4955522;28;20400;-65
2022/10/29 00:30:52;;;;;;;13.48;10.80;;;;;;;13.17;100.00;101996.09;4969011;28;20124;-65
2022/10/29 00:33:18;;;;;;;17.38;11.13;;;;;;;13.15;100.00;101996.03;4955542;28;20050;-65
2022/10/29 00:36:11;;;;;;;13.85;10.05;;;;;;;13.13;100.00;102002.00;4969301;28;20029;-65
2022/10/29 00:38:37;;;;;;;18.08;11.70;;;;;;;13.11;100.00;102003.66;4968894;28;20029;-65
2022/10/29 00:41:04;;;;;;;17.15;11.30;;;;;;;13.11;100.00;101996.75;4965636;28;20023;-65
2022/10/29 00:43:33;;;;;;;17.13;11.40;;;;;;;13.13;100.00;102004.63;4969052;28;20482;-65
2022/10/29 00:46:00;;;;;;;18.70;11.90;;;;;;;13.12;100.00;102001.13;4959442;28;20046;-65
2022/10/29 00:48:28;;;;;;;19.52;11.88;;;;;;;13.14;100.00;102004.69;4963287;28;20055;-66
2022/10/29 00:50:56;;;;;;;17.50;12.10;;;;;;;13.13;100.00;102005.47;4957709;28;20154;-65
2022/10/29 00:53:25;;;;;;;14.82;10.82;;;;;;;13.12;100.00;102008.94;4968856;28;20077;-65
2022/10/29 00:55:51;;;;;;;18.77;11.98;;;;;;;13.11;100.00;102001.97;4968824;28;20060;-65
2022/10/29 00:58:17;;;;;;;19.10;12.35;;;;;;;13.09;100.00;102004.50;4955814;28;20457;-65
2022/10/29 01:00:43;;;;;;;15.65;11.02;;;;;;;13.09;100.00;102007.09;4972781;28;20325;-65
2022/10/29 01:03:09;;;;;;;13.93;10.93;;;;;;;13.08;100.00;102002.72;4988348;28;20030;-65
2022/10/29 01:05:35;;;;;;;16.15;12.52;;;;;;;13.09;100.00;102014.03;4984954;28;20018;-65
2022/10/29 01:08:00;;;;;;;19.38;11.73;;;;;;;13.09;100.00;102009.72;4959907;28;20041;-65
2022/10/29 01:10:46;;;;;;;15.98;12.10;;;;;;;13.10;100.00;102007.97;4963696;28;20049;-65
2022/10/29 01:13:27;;;;;;;18.80;11.90;;;;;;;13.10;100.00;102005.38;4958423;28;20038;-65
2022/10/29 01:16:09;;;;;;;;;;;;;;;13.08;100.00;101996.59;4950024;28;20023;-65
2022/10/29 01:18:54;;;;;;;18.27;12.38;;;;;;;13.06;100.00;101985.28;4954971;28;19953;-65
2022/10/29 01:21:42;;;;;;;16.67;12.00;;;;;;;13.03;100.00;101985.13;4954932;28;20081;-66
2022/10/29 01:24:22;;;;;;;19.92;11.52;;;;;;;12.99;100.00;101980.66;4951824;28;20023;-65
2022/10/29 01:27:12;;;;;;;17.38;11.05;;;;;;;12.93;100.00;101974.34;4968729;28;20061;-65
2022/10/29 01:29:58;;;;;;;15.05;11.52;;;;;;;12.90;100.00;101982.03;4963189;28;20485;-65
2022/10/29 01:32:41;;;;;;;17.40;11.57;;;;;;;12.85;100.00;101986.16;4962797;28;20031;-65
2022/10/29 01:35:17;;;;;;;21.80;11.35;;;;;;;12.81;100.00;101981.66;4960568;28;20022;-65
2022/10/29 01:37:48;;;;;;;19.00;12.02;;;;;;;12.81;100.00;101973.84;4964350;28;20463;-64
2022/10/29 01:40:35;;;;;;;17.63;11.75;;;;;;;12.79;100.00;101972.94;4987847;28;20026;-65
2022/10/29 01:43:14;;;;;;;15.88;11.00;;;;;;;12.76;100.00;101970.19;4973750;28;20364;-65
2022/10/29 01:45:48;;;;;;;21.45;11.68;;;;;;;12.72;100.00;101962.25;4966695;28;20121;-65
2022/10/29 01:48:19;;;;;;;15.48;11.40;;;;;;;12.72;100.00;101956.16;4948869;28;20333;-65
2022/10/29 01:50:48;;;;;;;16.52;11.98;;;;;;;12.68;100.00;101955.13;4959130;28;20023;-65
2022/10/29 01:53:15;;;;;;;15.55;11.05;;;;;;;12.64;100.00;101958.47;4979508;28;20023;-65
2022/10/29 01:55:40;;;;;;;14.00;11.43;;;;;;;12.63;100.00;101948.00;4958083;28;20464;-65
2022/10/29 01:58:06;;;;;;;16.02;10.75;;;;;;;12.60;100.00;101941.84;4969965;28;20038;-65
2022/10/29 02:00:51;;;;;;;19.05;11.75;;;;;;;12.57;100.00;101941.72;4969443;28;20027;-65
2022/10/29 02:03:44;;;;;;;16.48;12.27;;;;;;;12.54;100.00;101933.78;4965284;28;20395;-65
2022/10/29 02:06:19;;;;;;;15.18;11.02;;;;;;;12.54;100.00;101941.56;4958218;28;20039;-65
2022/10/29 02:08:58;;;;;;;18.02;12.75;;;;;;;12.53;100.00;101938.91;4970265;28;20062;-64
2022/10/29 02:11:39;;;;;;;17.75;13.13;;;;;;;12.51;100.00;101932.75;4986381;28;20034;-64
2022/10/29 02:14:26;;;;;;;19.02;12.65;;;;;;;12.52;100.00;101937.16;4953800;28;20015;-64
2022/10/29 02:16:53;;;;;;;19.63;12.63;;;;;;;12.51;100.00;101935.38;4976722;28;20046;-65
2022/10/29 02:19:19;;;;;;;17.63;12.88;;;;;;;12.52;100.00;101926.75;4971938;28;20022;-64
2022/10/29 02:21:44;;;;;;;19.70;12.95;;;;;;;12.52;100.00;101932.81;4955835;28;20039;-64
2022/10/29 02:24:10;;;;;;;15.43;11.65;;;;;;;12.51;100.00;101930.16;4969402;28;20019;-65
2022/10/29 02:26:35;;;;;;;17.48;12.18;;;;;;;12.48;100.00;101931.81;4987118;28;20477;-65
2022/10/29 02:29:01;;;;;;;16.27;12.45;;;;;;;12.48;100.00;101930.94;4983085;28;20035;-65
2022/10/29 02:31:27;;;;;;;25.95;13.05;;;;;;;12.46;100.00;101928.28;4969749;28;20041;-65
2022/10/29 02:33:52;;;;;;;20.27;11.93;;;;;;;12.47;100.00;101918.75;4951667;28;20041;-65
2022/10/29 02:36:17;;;;;;;18.30;12.18;;;;;;;12.42;100.00;101915.97;4954166;28;20512;-65
2022/10/29 02:38:42;;;;;;;20.23;12.60;;;;;;;12.40;100.00;101915.00;4965096;28;20038;-65
2022/10/29 02:41:08;;;;;;;19.77;13.07;;;;;;;12.40;100.00;101904.63;4956450;28;20505;-65
2022/10/29 02:43:33;;;;;;;17.33;12.10;;;;;;;12.39;100.00;101905.44;4967551;28;20055;-64
2022/10/29 02:46:18;;;;;;;15.93;12.52;;;;;;;12.36;100.00;101907.91;4955046;28;20039;-64
2022/10/29 02:48:43;;;;;;;16.38;11.98;;;;;;;12.33;100.00;101906.06;4951537;28;20027;-65
2022/10/29 02:51:09;;;;;;;18.02;11.75;;;;;;;12.32;100.00;101896.50;4960743;28;20081;-65
2022/10/29 02:53:34;;;;;;;15.60;11.55;;;;;;;12.31;100.00;101897.31;4965466;28;20454;-65
2022/10/29 02:55:59;;;;;;;17.98;11.43;;;;;;;12.31;100.00;101899.03;4965213;28;20057;-65
2022/10/29 02:58:25;;;;;;;15.45;11.70;;;;;;;12.30;100.00;101910.25;4957387;28;20022;-64
2022/10/29 03:00:51;;;;;;;15.43;11.35;;;;;;;12.29;100.00;101903.28;4962352;28;20034;-64
2022/10/29 03:03:16;;;;;;;18.90;11.40;;;;;;;12.30;100.00;101912.84;4964694;28;20027;-64
2022/10/29 03:05:41;;;;;;;17.40;10.90;;;;;;;12.29;100.00;101895.47;4971241;28;20059;-64
2022/10/29 03:08:07;;;;;;;18.48;12.73;;;;;;;12.27;100.00;101889.34;4970627;28;20023;-64
2022/10/29 03:10:32;;;;;;;15.60;12.50;;;;;;;12.27;100.00;101890.22;4964824;28;20054;-64
2022/10/29 03:12:58;;;;;;;20.75;12.30;;;;;;;12.24;100.00;101891.00;4981089;28;20549;-64
2022/10/29 03:15:24;;;;;;;16.10;11.73;;;;;;;12.21;100.00;101887.38;4970484;28;20023;-64
2022/10/29 03:17:49;;;;;;;15.75;11.15;;;;;;;12.20;100.00;101886.47;4981379;28;20023;-64
2022/10/29 03:20:14;;;;;;;16.88;11.95;;;;;;;12.16;100.00;101889.75;4960216;28;20069;-64
2022/10/29 03:22:39;;;;;;;19.70;11.85;;;;;;;12.13;100.00;101880.16;4957153;28;20027;-64
2022/10/29 03:25:05;;;;;;;13.85;11.18;;;;;;;12.13;100.00;101876.66;4970579;28;20027;-64
2022/10/29 03:27:31;;;;;;;17.98;12.57;;;;;;;12.10;100.00;101879.13;4969077;28;20074;-64
2022/10/29 03:29:56;;;;;;;15.60;12.52;;;;;;;12.07;100.00;101877.25;4970797;28;20487;-64
2022/10/29 03:32:22;;;;;;;19.45;13.80;;;;;;;12.06;100.00;101867.69;4970224;28;20041;-64
2022/10/29 03:34:47;;;;;;;19.13;13.80;;;;;;;12.06;100.00;101874.56;4970826;28;20332;-64
2022/10/29 03:37:12;;;;;;;15.68;12.25;;;;;;;12.06;100.00;101874.56;4970619;28;20026;-64
2022/10/29 03:39:38;;;;;;;16.95;12.15;;;;;;;12.02;100.00;101873.56;4970021;28;20050;-64
2022/10/29 03:42:03;;;;;;;15.20;11.27;;;;;;;12.02;100.00;101868.38;4958988;28;20168;-63
2022/10/29 03:44:28;;;;;;;17.02;12.48;;;;;;;12.01;100.00;101867.50;4964240;28;20047;-63
2022/10/29 03:46:54;;;;;;;15.00;11.20;;;;;;;12.00;100.00;101859.63;4960177;28;20038;-64
2022/10/29 03:49:19;;;;;;;17.05;11.45;;;;;;;11.98;100.00;101862.16;4969542;28;20106;-64
2022/10/29 03:51:45;;;;;;;13.95;11.15;;;;;;;11.98;100.00;101856.09;4970115;28;20034;-64
2022/10/29 03:54:10;;;;;;;18.17;12.55;;;;;;;11.98;100.00;101856.97;4970451;28;20097;-64
2022/10/29 03:56:36;;;;;;;19.40;11.70;;;;;;;11.99;100.00;101863.03;4969041;28;20039;-64
2022/10/29 03:59:01;;;;;;;13.30;11.52;;;;;;;12.00;100.00;101860.50;4970101;28;20038;-64
2022/10/29 04:01:26;;;;;;;18.77;13.02;;;;;;;12.00;100.00;101855.31;4969585;28;20027;-65
2022/10/29 04:03:51;;;;;;;15.57;12.45;;;;;;;12.03;100.00;101844.19;4969376;28;20422;-64
2022/10/29 04:06:17;;;;;;;16.30;11.45;;;;;;;12.05;100.00;101836.44;4969068;28;20031;-65
2022/10/29 04:08:43;;;;;;;16.17;11.98;;;;;;;12.06;100.00;101836.50;4969457;28;20449;-64
2022/10/29 04:11:12;;;;;;;18.50;13.65;;;;;;;12.08;100.00;101836.56;4957421;28;20450;-64
2022/10/29 04:13:37;;;;;;;16.98;11.15;;;;;;;12.07;100.00;101821.81;4968610;28;20034;-64
2022/10/29 04:16:03;;;;;;;18.35;12.68;;;;;;;12.07;100.00;101827.88;4968869;28;20090;-64
2022/10/29 04:18:28;;;;;;;15.90;11.77;;;;;;;12.08;100.00;101831.38;4951547;28;20357;-64
2022/10/29 04:20:59;;;;;;;15.18;10.85;;;;;;;12.07;100.00;101829.59;4959525;28;20101;-64
2022/10/29 04:23:24;;;;;;;16.75;13.20;;;;;;;12.08;100.00;101826.19;4977604;28;20026;-64
2022/10/29 04:25:57;;;;;;;16.80;12.40;;;;;;;12.06;100.00;101823.53;4978635;28;20234;-64
2022/10/29 04:28:23;;;;;;;15.93;12.05;;;;;;;12.08;100.00;101823.56;4975312;28;20494;-64
2022/10/29 04:30:48;;;;;;;13.35;11.10;;;;;;;12.05;100.00;101823.47;4981114;28;20162;-65
2022/10/29 04:33:14;;;;;;;17.02;11.75;;;;;;;12.05;100.00;101826.94;4969016;28;20392;-64
2022/10/29 04:35:39;;;;;;;17.20;11.60;;;;;;;12.04;100.00;101821.66;4969368;28;20074;-64
2022/10/29 04:38:09;;;;;;;18.45;12.77;;;;;;;12.05;100.00;101816.56;4965716;28;20034;-64
2022/10/29 04:40:34;;;;;;;16.10;11.20;;;;;;;12.05;100.00;101811.38;4977273;28;20565;-64
2022/10/29 04:42:59;;;;;;;14.10;12.60;;;;;;;12.04;100.00;101809.56;4970809;28;20046;-64
2022/10/29 04:45:25;;;;;;;18.70;11.43;;;;;;;12.04;100.00;101812.16;4969073;28;20403;-64
2022/10/29 04:48:00;;;;;;;18.08;12.02;;;;;;;12.04;100.00;101808.69;4969283;28;20023;-64
2022/10/29 04:50:26;;;;;;;16.88;11.45;;;;;;;12.03;100.00;101817.31;4973928;28;20410;-64
2022/10/29 04:52:52;;;;;;;14.73;12.02;;;;;;;12.01;100.00;101818.16;4974012;28;20026;-64
2022/10/29 04:55:17;;;;;;;18.67;11.90;;;;;;;12.00;100.00;101825.84;4954679;28;20411;-64
2022/10/29 04:57:48;;;;;;;17.88;12.30;;;;;;;11.99;100.00;101827.56;4958842;28;20034;-64
2022/10/29 05:00:13;;;;;;;19.23;12.88;;;;;;;12.01;100.00;101825.94;4957758;28;20029;-63
2022/10/29 05:02:39;;;;;;;20.65;12.93;;;;;;;11.99;100.00;101817.19;4969111;28;20026;-64
2022/10/29 05:05:04;;;;;;;15.95;13.43;;;;;;;12.01;100.00;101814.66;4979509;28;20102;-64
2022/10/29 05:07:30;;;;;;;23.42;13.18;;;;;;;12.04;100.00;101811.28;4963841;28;20027;-64
2022/10/29 05:09:55;;;;;;;25.33;14.20;;;;;;;12.05;100.00;101805.28;4973853;28;20041;-64
2022/10/29 05:12:20;;;;;;;22.60;13.52;;;;;;;12.08;100.00;101802.78;4979090;28;20394;-64
2022/10/29 05:14:45;;;;;;;17.80;14.60;;;;;;;12.06;100.00;101805.34;4973699;28;20050;-64
2022/10/29 05:17:11;;;;;;;17.83;14.43;;;;;;;12.06;100.00;101804.44;4965039;28;20114;-64
2022/10/29 05:19:36;;;;;;;16.50;13.23;;;;;;;12.04;100.00;101808.69;4966343;28;20463;-64
2022/10/29 05:22:01;;;;;;;20.88;14.02;;;;;;;12.03;100.00;101806.91;4964113;28;20065;-63
2022/10/29 05:24:26;;;;;;;19.50;15.23;;;;;;;12.04;100.00;101798.28;4954431;28;20494;-63
2022/10/29 05:26:52;;;;;;;21.05;14.35;;;;;;;12.04;100.00;101796.59;4961449;28;20086;-64
2022/10/29 05:29:17;;;;;;;22.20;14.90;;;;;;;12.03;100.00;101791.34;4961342;28;21136;-64
2022/10/29 05:31:42;;;;;;;17.13;14.02;;;;;;;12.01;100.00;101804.25;4954224;28;20034;-64
2022/10/29 05:34:07;;;;;;;18.25;14.40;;;;;;;11.99;100.00;101801.59;4968425;28;20510;-64
2022/10/29 05:36:33;;;;;;;22.25;14.60;;;;;;;12.00;100.00;101794.66;4978406;28;20034;-63
2022/10/29 05:38:58;;;;;;;23.48;14.55;;;;;;;12.00;100.00;101795.56;4961712;28;20024;-64
2022/10/29 05:41:23;;;;;;;22.33;16.27;;;;;;;12.01;100.00;101789.56;4974293;28;20239;-64
2022/10/29 05:43:49;;;;;;;22.88;16.30;;;;;;;12.04;100.00;101783.59;4977931;28;20379;-63
2022/10/29 05:46:15;;;;;;;26.17;17.52;;;;;;;12.06;100.00;101781.06;4977614;28;20049;-63
2022/10/29 05:48:40;;;;;;;23.38;15.52;;;;;;;12.06;100.00;101781.94;4968480;28;20022;-63
2022/10/29 05:51:06;;;;;;;21.05;16.15;;;;;;;12.05;100.00;101781.91;4948890;28;20037;-63
2022/10/29 05:53:31;;;;;;;23.83;16.00;;;;;;;12.07;100.00;101775.91;4962083;28;20278;-63
2022/10/29 05:55:57;;;;;;;21.70;15.88;;;;;;;12.08;100.00;101777.72;4984836;28;20149;-64
2022/10/29 05:58:23;;;;;;;21.77;16.30;;;;;;;12.11;100.00;101771.78;4974837;28;20236;-64
2022/10/29 06:00:48;;;;;;;22.38;16.08;;;;;;;12.11;100.00;101770.06;4980057;28;20134;-64
2022/10/29 06:03:20;;;;;;;23.17;16.63;;;;;;;12.13;100.00;101772.72;4958605;28;20039;-64
2022/10/29 06:05:47;;;;;;;23.55;17.23;;;;;;;12.13;100.00;101765.81;4954449;28;20050;-63
2022/10/29 06:08:12;;;;;;;22.55;17.42;;;;;;;12.15;100.00;101765.88;4969339;28;20082;-63
2022/10/29 06:10:37;;;;;;;24.25;16.92;;;;;;;12.17;100.00;101765.94;4961808;28;20050;-64
2022/10/29 06:13:13;;;;;;;23.55;17.83;;;;;;;12.18;100.00;101765.13;4965423;28;20081;-63
2022/10/29 06:15:39;;;;;;;24.10;16.00;;;;;;;12.19;100.00;101764.28;4955084;28;20055;-63
2022/10/29 06:18:04;;;;;;;25.05;16.98;;;;;;;12.20;100.00;101769.53;4948995;28;20051;-63
2022/10/29 06:20:30;;;;;;;25.77;17.80;;;;;;;12.21;100.00;101786.94;4957416;28;20098;-64
2022/10/29 06:22:56;;;;;;;30.90;20.10;;;;;;;12.24;100.00;101792.25;4962047;28;20519;-64
2022/10/29 06:25:22;;;;;;;27.90;19.50;;;;;;;12.28;100.00;101777.66;4954250;28;20023;-64
2022/10/29 06:28:02;;;;;;;26.27;18.45;;;;;;;12.30;100.00;101785.50;4949829;28;20036;-64
2022/10/29 06:30:29;;;;;;;25.63;17.27;;;;;;;12.31;100.00;101793.38;4952989;28;20035;-64
2022/10/29 06:32:55;;;;;;;27.40;18.98;;;;;;;12.34;100.00;101790.88;4955875;28;20179;-64
2022/10/29 06:35:20;;;;;;;31.30;18.88;;;;;;;12.39;100.00;101791.09;4954812;28;20048;-64
2022/10/29 06:37:45;;;;;;;30.05;20.40;;;;;;;12.44;100.00;101786.06;4951180;28;20039;-64
2022/10/29 06:40:11;;;;;;;27.27;17.95;;;;;;;12.46;100.00;101792.22;4953048;28;20034;-64
2022/10/29 06:42:36;;;;;;;25.73;18.45;;;;;;;12.47;100.00;101789.66;4957174;28;20056;-64
2022/10/29 06:45:02;;;;;;;27.83;19.73;;;;;;;12.52;100.00;101786.38;4960156;28;20149;-64
2022/10/29 06:47:27;;;;;;;30.20;19.42;;;;;;;12.55;100.00;101781.28;4952375;28;20028;-63
2022/10/29 06:49:52;;;;;;;24.58;18.67;;;;;;;12.58;100.00;101789.19;4953071;28;20525;-63
2022/10/29 06:52:17;;;;;;;30.23;18.10;;;;;;;12.56;100.00;101781.34;4950584;28;20030;-64
2022/10/29 06:54:43;;;;;;;25.92;18.38;;;;;;;12.58;100.00;101786.59;4967704;28;20076;-63
2022/10/29 06:57:08;;;;;;;24.05;17.02;;;;;;;12.57;100.00;101788.34;4972397;28;20486;-63
2022/10/29 06:59:33;;;;;;;24.98;17.65;;;;;;;12.58;100.00;101797.00;4965136;28;20429;-64
2022/10/29 07:01:58;;;;;;;25.55;17.83;;;;;;;12.58;100.00;101802.19;4968051;28;20034;-63
2022/10/29 07:04:24;;;;;;;23.02;18.25;;;;;;;12.61;100.00;101805.81;4970706;28;20046;-64
2022/10/29 07:06:49;;;;;;;26.98;17.13;;;;;;;12.66;100.00;101807.69;4959049;28;20035;-64
2022/10/29 07:09:14;;;;;;;29.25;18.52;;;;;;;12.68;100.00;101809.53;4957480;28;20031;-64
2022/10/29 07:11:40;;;;;;;27.23;19.23;;;;;;;12.71;100.00;101799.25;4952284;28;20035;-64
2022/10/29 07:14:07;;;;;;;25.90;18.80;;;;;;;12.72;100.00;101795.81;4955496;28;20031;-64
2022/10/29 07:16:33;;;;;;;22.70;17.67;;;;;;;12.76;100.00;101793.31;4959688;28;20031;-64
2022/10/29 07:18:58;;;;;;;25.73;18.02;;;;;;;12.77;100.00;101785.56;4953062;28;20030;-64
2022/10/29 07:21:23;;;;;;;29.38;20.42;;;;;;;12.78;100.00;101778.66;4954875;28;20530;-64
2022/10/29 07:23:48;;;;;;;28.67;18.38;;;;;;;12.80;100.00;101796.13;4955252;28;20568;-64
2022/10/29 07:26:14;;;;;;;26.95;20.67;;;;;;;12.83;100.00;101778.03;4952322;28;20542;-64
2022/10/29 07:28:39;;;;;;;26.48;18.70;;;;;;;12.85;100.00;101773.78;4952691;28;20011;-64
2022/10/29 07:31:06;;;;;;;28.30;18.80;;;;;;;12.89;100.00;101771.28;4952810;28;20061;-64
2022/10/29 07:33:31;;;;;;;28.40;18.88;;;;;;;12.91;100.00;101765.31;4952919;28;20031;-64
2022/10/29 07:35:57;;;;;;;27.13;18.77;;;;;;;12.93;100.00;101766.22;4954058;28;20459;-64
2022/10/29 07:38:24;;;;;;;26.27;18.33;;;;;;;12.96;100.00;101768.06;4951025;28;20368;-64
2022/10/29 07:40:49;;;;;;;28.50;18.00;;;;;;;12.99;100.00;101765.56;4963033;28;20085;-64
2022/10/29 07:43:16;;;;;;;25.25;18.80;;;;;;;13.00;100.00;101766.47;4966645;28;20428;-64
2022/10/29 07:45:44;;;;;;;25.67;17.67;;;;;;;13.03;100.00;101771.78;4973195;28;20129;-64
2022/10/29 07:48:09;;;;;;;25.90;17.48;;;;;;;13.05;100.00;101764.94;4959463;28;20114;-64
2022/10/29 07:50:36;;;;;;;27.50;18.45;;;;;;;13.08;100.00;101762.44;4969310;28;20648;-64
2022/10/29 07:53:02;;;;;;;26.38;18.05;;;;;;;13.11;100.00;101761.66;4959767;28;20430;-64
2022/10/29 07:55:28;;;;;;;20.02;16.58;;;;;;;13.15;100.00;101763.56;4959961;28;20011;-64
2022/10/29 07:58:01;;;;;;;19.05;16.45;;;;;;;13.16;100.00;101758.41;4954466;28;20090;-64
2022/10/29 08:00:38;;;;;;;20.80;16.48;;;;;;;13.20;100.00;101767.22;4957004;28;20034;-64
2022/10/29 08:03:04;;;;;;;23.92;17.85;;;;;;;13.21;100.00;101769.88;4960212;28;20027;-64
2022/10/29 08:05:31;;;;;;;21.60;17.13;;;;;;;13.26;100.00;101764.81;4955674;28;20391;-64
2022/10/29 08:07:57;;;;;;;24.60;17.63;;;;;;;13.32;100.00;101771.97;4963562;28;20046;-64
2022/10/29 08:10:23;;;;;;;23.42;17.45;;;;;;;13.39;100.00;101765.25;4955619;28;20047;-64
2022/10/29 08:12:53;;;;;;;23.73;18.92;;;;;;;13.45;100.00;101773.28;4953322;28;20030;-64
2022/10/29 08:15:19;;;;;;;24.40;18.77;;;;;;;13.52;100.00;101763.97;4955058;28;20522;-64
2022/10/29 08:17:45;;;;;;;25.77;19.10;;;;;;;13.56;100.00;101761.53;4958326;28;20023;-64
2022/10/29 08:20:11;;;;;;;24.13;17.67;;;;;;;13.61;100.00;101750.41;4949964;28;20035;-64
2022/10/29 08:22:36;;;;;;;21.52;17.75;;;;;;;13.67;100.00;101763.66;4952221;28;20491;-64
2022/10/29 08:25:01;;;;;;;28.90;17.92;;;;;;;13.71;100.00;101757.69;4950730;28;20027;-64
2022/10/29 08:27:27;;;;;;;28.42;18.98;;;;;;;13.76;100.00;101758.72;4953367;28;20590;-64
2022/10/29 08:29:52;;;;;;;28.70;19.33;;;;;;;13.81;100.00;101757.16;4950931;28;20069;-64
2022/10/29 08:32:17;;;;;;;27.77;19.00;;;;;;;13.86;100.00;101759.94;4952864;28;20415;-64
2022/10/29 08:34:43;;;;;;;23.02;17.85;;;;;;;13.90;100.00;101746.19;4948772;28;20082;-64
2022/10/29 08:37:08;;;;;;;21.80;17.38;;;;;;;13.92;100.00;101749.69;4949299;28;20471;-64
2022/10/29 08:39:33;;;;;;;25.50;18.70;;;;;;;13.96;100.00;101755.03;4949838;28;20753;-64
2022/10/29 08:42:20;;;;;;;24.25;18.05;;;;;;;14.02;100.00;101758.72;4947544;28;20038;-64
2022/10/29 08:45:29;;;;;;;24.88;19.13;;;;;;;14.12;100.00;101764.22;4948009;28;20039;-64
2022/10/29 08:48:08;;;;;;;26.60;18.90;;;;;;;14.24;100.00;101761.13;4948560;28;20186;-63
2022/10/29 08:50:39;;;;;;;26.77;19.48;;;;;;;14.32;100.00;101757.00;4948969;28;20035;-64
2022/10/29 08:53:19;;;;;;;23.00;17.38;;;;;;;14.40;100.00;101747.72;4951730;28;20023;-64
2022/10/29 08:55:45;;;;;;;22.20;17.25;;;;;;;14.49;100.00;101743.63;4953703;28;20027;-64
2022/10/29 08:58:30;;;;;;;24.15;16.45;;;;;;;14.55;100.00;101746.44;4957308;28;20375;-64
2022/10/29 09:00:57;;;;;;;22.42;16.27;;;;;;;14.61;100.00;101745.69;4955893;28;20438;-64
2022/10/29 09:03:25;;;;;;;23.10;17.95;;;;;;;14.65;100.00;101737.13;4955031;28;20591;-64
2022/10/29 09:05:59;;;;;;;21.33;17.10;;;;;;;14.69;100.00;101740.72;4954597;28;20470;-64
2022/10/29 09:09:28;;;;;;;22.63;16.92;;;;;;;14.73;100.00;101735.63;4968161;28;20056;-64
2022/10/29 09:12:32;;;;;;;23.63;15.90;;;;;;;14.80;100.00;101730.59;4951797;28;20130;-63
2022/10/29 09:15:18;;;;;;;24.00;16.75;;;;;;;14.89;100.00;101720.47;4927531;28;20673;-64
2022/10/29 09:18:04;;;;;;;20.33;16.48;;;;;;;14.99;100.00;101726.81;4953386;28;20042;-64
2022/10/29 09:20:39;;;;;;;23.02;15.98;;;;;;;15.09;100.00;101728.81;4958911;28;20027;-64
2022/10/29 09:23:14;;;;;;;22.90;17.55;;;;;;;15.18;100.00;101732.53;4967112;28;20061;-62
2022/10/29 09:25:58;;;;;;;24.75;16.33;;;;;;;15.29;100.00;101736.31;4962460;28;20031;-63
2022/10/29 09:28:53;;;;;;;23.67;15.88;;;;;;;15.38;100.00;101738.28;4978457;28;20046;-63
2022/10/29 09:31:43;;;;;;;16.95;14.95;;;;;;;15.46;100.00;101738.50;4960544;28;20023;-64
2022/10/29 09:34:29;;;;;;;19.60;13.85;;;;;;;15.54;100.00;101726.50;4967847;28;20522;-64
2022/10/29 09:36:55;;;;;;;19.10;13.55;;;;;;;15.58;100.00;101712.69;4965076;28;20768;-63
2022/10/29 09:39:43;;;;;;;17.95;13.50;;;;;;;15.62;100.00;101729.31;4962092;28;20045;-63
2022/10/29 09:42:35;;;;;;;18.52;13.20;;;;;;;15.65;100.00;101723.31;4952282;28;20031;-63
2022/10/29 09:45:02;;;;;;;16.38;11.98;;;;;;;15.68;100.00;101712.91;4953552;28;20495;-64
2022/10/29 09:47:45;;;;;;;23.10;14.02;;;;;;;15.70;100.00;101719.94;4975981;28;20054;-64
2022/10/29 09:50:31;;;;;;;17.40;12.93;;;;;;;15.76;100.00;101720.97;4966122;28;20039;-65
2022/10/29 09:52:58;;;;;;;17.85;12.55;;;;;;;15.80;100.00;101715.84;4957031;28;20875;-64
2022/10/29 09:55:27;;;;;;;17.45;12.52;;;;;;;15.87;100.00;101711.63;4951741;28;20527;-64
2022/10/29 09:57:54;;;;;;;16.75;11.20;;;;;;;15.97;100.00;101705.75;4950045;28;20083;-64
2022/10/29 10:00:26;;;;;;;23.15;13.20;;;;;;;16.05;100.00;101702.47;4953707;28;20456;-64
2022/10/29 10:03:09;;;;;;;15.38;10.63;;;;;;;16.17;100.00;101694.91;4956120;28;20183;-64
2022/10/29 10:05:54;;;;;;;20.38;12.82;;;;;;;16.29;100.00;101699.56;4955565;28;20150;-64
2022/10/29 10:08:19;;;;;;;16.65;10.80;;;;;;;16.46;100.00;101692.91;4955829;28;20031;-64
2022/10/29 10:10:52;;;;;;;23.85;11.48;;;;;;;16.61;100.00;101697.56;4954642;28;20049;-68
2022/10/29 10:13:20;;;;;;;13.52;10.70;;;;;;;16.73;100.00;101692.59;4967538;28;20039;-66
2022/10/29 10:15:57;;;;;;;12.95;9.05;;;;;;;16.80;100.00;101689.25;4958813;28;20027;-66
2022/10/29 10:18:39;;;;;;;14.70;10.13;;;;;;;16.85;100.00;101694.56;4967566;28;20264;-66
2022/10/29 10:21:24;;;;;;;11.48;9.38;;;;;;;16.85;100.00;101697.19;4956332;28;20415;-67
2022/10/29 10:23:52;;;;;;;14.52;9.10;;;;;;;16.85;100.00;101691.06;4952193;28;20499;-65
2022/10/29 10:26:42;;;;;;;11.30;8.43;;;;;;;16.84;100.00;101690.19;4953251;28;20038;-66
2022/10/29 10:29:10;;;;;;;16.98;10.38;;;;;;;16.86;100.00;101687.59;4951520;28;20129;-66
2022/10/29 10:31:36;;;;;;;18.23;11.48;;;;;;;16.88;100.00;101692.00;4952030;28;20028;-66
2022/10/29 10:34:21;;;;;;;15.15;9.63;;;;;;;16.93;100.00;101690.38;4953472;28;20083;-66
2022/10/29 10:36:48;;;;;;;11.98;7.90;;;;;;;16.99;100.00;101692.22;4958369;28;20439;-66
2022/10/29 10:39:27;;;;;;;10.85;7.03;;;;;;;17.05;100.00;101684.47;4958009;28;20031;-66
2022/10/29 10:41:54;;;;;;;14.25;7.20;;;;;;;17.11;100.00;101683.72;4952117;28;20431;-66
2022/10/29 10:44:21;;;;;;;12.20;6.85;;;;;;;17.20;100.00;101676.91;4972581;28;20049;-66
2022/10/29 10:46:49;;;;;;;10.77;7.18;;;;;;;17.28;100.00;101675.31;4955490;28;20034;-66
2022/10/29 10:49:19;;;;;;;12.32;7.03;;;;;;;17.37;100.00;101669.34;4951950;28;20058;-66
2022/10/29 10:51:50;;;;;;;11.15;5.88;;;;;;;17.44;100.00;101671.22;4954566;28;20031;-66
2022/10/29 10:54:35;;;;;;;;;;;;;;;17.55;100.00;101670.50;4954025;28;20074;-66
2022/10/29 10:57:19;;;;;;;11.55;6.03;;;;;;;17.69;100.00;101661.13;4951441;28;20533;-66
2022/10/29 11:00:14;;;;;;;10.93;5.40;;;;;;;17.81;100.00;101656.94;4950909;28;20110;-66
2022/10/29 11:03:00;;;;;;;9.52;5.13;;;;;;;17.94;100.00;101652.72;4952338;28;20086;-68
2022/10/29 11:05:34;;;;;;;6.70;4.53;;;;;;;18.07;100.00;101651.16;4952032;28;20161;-66
2022/10/29 11:08:16;;;;;;;9.55;5.07;;;;;;;18.23;100.00;101658.41;4950932;28;20023;-66
2022/10/29 11:10:49;;;;;;;9.75;4.95;;;;;;;18.43;100.00;101667.38;4949855;28;20445;-66
2022/10/29 11:13:19;;;;;;;13.43;4.72;;;;;;;18.60;100.00;101659.72;4952145;28;20086;-67
2022/10/29 11:15:57;;;;;;;9.45;5.15;;;;;;;18.78;100.00;101652.94;4952990;28;20043;-67